Time;durP1;ratioP1;P1;durP2;ratioP2;P2;SDS_P1;SDS_P2;PMS_P1;PMS_P2;Temp;Humidity;BMP_temperature;BMP_pressure;BME280_temperature;BME280_humidity;BME280_pressure;Samples;Min_cycle;Max_cycle;Signal;HPM_P1;HPM_P2
2023/09/10 00:02:16;;;;;;;21.50;16.60;;;;;;;;;;5059686;28;20039;-79
2023/09/10 00:04:41;;;;;;;21.20;16.20;;;;;;;;;;5077132;28;20048;-79
2023/09/10 00:07:07;;;;;;;21.92;15.80;;;;;;;;;;5059633;28;20034;-78
2023/09/10 00:09:33;;;;;;;25.05;19.15;;;;;;;;;;4992759;28;20496;-79
2023/09/10 00:11:58;;;;;;;28.45;19.50;;;;;;;;;;5059874;28;20014;-80
2023/09/10 00:14:24;;;;;;;25.30;18.73;;;;;;;;;;4992156;28;20031;-79
2023/09/10 00:16:49;;;;;;;30.80;20.45;;;;;;;;;;5076743;28;20062;-79
2023/09/10 00:19:15;;;;;;;34.50;25.00;;;;;;;;;;5060169;28;20042;-79
2023/09/10 00:21:41;;;;;;;24.50;18.98;;;;;;;;;;5059286;28;20045;-77
2023/09/10 00:24:08;;;;;;;25.92;17.90;;;;;;;;;;5060063;28;20030;-79
2023/09/10 00:26:34;;;;;;;71.00;43.13;;;;;;;;;;4992961;28;20018;-79
2023/09/10 00:28:59;;;;;;;56.83;36.88;;;;;;;;;;5059317;28;20038;-78
2023/09/10 00:31:24;;;;;;;37.47;23.50;;;;;;;;;;4992617;28;20372;-80
2023/09/10 00:33:50;;;;;;;31.98;23.20;;;;;;;;;;5059568;28;20041;-80
2023/09/10 00:36:15;;;;;;;53.85;33.83;;;;;;;;;;4992125;28;20086;-78
2023/09/10 00:38:40;;;;;;;33.00;24.20;;;;;;;;;;5060451;28;20019;-77
2023/09/10 00:41:07;;;;;;;35.17;24.25;;;;;;;;;;4991277;28;20117;-77
2023/09/10 00:43:33;;;;;;;36.20;23.35;;;;;;;;;;4991023;28;20038;-79
2023/09/10 00:45:58;;;;;;;32.70;21.73;;;;;;;;;;5074810;28;20042;-78
2023/09/10 00:48:24;;;;;;;30.77;21.85;;;;;;;;;;5058106;28;20039;-75
2023/09/10 00:50:50;;;;;;;32.33;21.17;;;;;;;;;;4992009;28;20551;-78
2023/09/10 00:53:16;;;;;;;26.92;19.98;;;;;;;;;;4994663;28;20068;-78
2023/09/10 00:55:41;;;;;;;35.65;22.67;;;;;;;;;;5062168;28;20072;-78
2023/09/10 00:58:07;;;;;;;37.58;22.23;;;;;;;;;;4994902;28;20042;-77
2023/09/10 01:00:32;;;;;;;40.88;23.58;;;;;;;;;;5059136;28;20031;-78
2023/09/10 01:02:59;;;;;;;38.30;22.75;;;;;;;;;;5056691;28;20026;-77
2023/09/10 01:05:24;;;;;;;42.72;24.60;;;;;;;;;;4995539;28;20042;-78
2023/09/10 01:07:50;;;;;;;39.20;25.55;;;;;;;;;;4995533;28;20385;-78
2023/09/10 01:10:16;;;;;;;42.60;27.13;;;;;;;;;;4995891;28;20057;-79
2023/09/10 01:12:45;;;;;;;51.95;30.77;;;;;;;;;;5079614;28;20455;-77
2023/09/10 01:15:28;;;;;;;58.17;32.75;;;;;;;;;;4995221;28;20023;-79
2023/09/10 01:18:12;;;;;;;50.50;32.22;;;;;;;;;;4995968;28;20448;-78
2023/09/10 01:20:55;;;;;;;51.75;31.35;;;;;;;;;;4995720;28;20492;-78
2023/09/10 01:23:39;;;;;;;46.45;28.52;;;;;;;;;;4995194;28;20043;-79
2023/09/10 01:26:04;;;;;;;41.67;26.80;;;;;;;;;;5076972;28;20043;-78
2023/09/10 01:28:30;;;;;;;43.35;26.27;;;;;;;;;;5062410;28;20041;-77
2023/09/10 01:30:55;;;;;;;39.33;24.02;;;;;;;;;;5058724;28;20035;-77
2023/09/10 01:33:29;;;;;;;68.80;34.95;;;;;;;;;;4983619;28;20030;-79
2023/09/10 01:36:17;;;;;;;43.30;28.50;;;;;;;;;;5062452;28;20030;-79
2023/09/10 01:39:18;;;;;;;56.78;33.45;;;;;;;;;;5002238;28;20354;-78
2023/09/10 01:41:47;;;;;;;72.88;39.58;;;;;;;;;;4994494;28;20038;-78
2023/09/10 01:44:14;;;;;;;50.85;29.88;;;;;;;;;;5061972;28;20038;-79
2023/09/10 01:46:40;;;;;;;56.53;31.45;;;;;;;;;;5060991;28;20159;-77
2023/09/10 01:49:05;;;;;;;53.13;32.42;;;;;;;;;;5061769;28;20255;-77
2023/09/10 01:51:31;;;;;;;53.47;30.85;;;;;;;;;;4994485;28;20058;-78
2023/09/10 01:53:56;;;;;;;42.78;27.90;;;;;;;;;;5062441;28;20034;-78
2023/09/10 01:56:22;;;;;;;49.45;28.90;;;;;;;;;;5061543;28;20039;-77
2023/09/10 01:58:47;;;;;;;49.17;29.10;;;;;;;;;;5060838;28;20038;-78
2023/09/10 02:01:12;;;;;;;36.45;25.63;;;;;;;;;;5003776;28;20050;-78
2023/09/10 02:03:38;;;;;;;38.92;25.50;;;;;;;;;;4977196;28;20034;-77
2023/09/10 02:06:03;;;;;;;42.80;26.88;;;;;;;;;;5061695;28;20022;-78
2023/09/10 02:08:29;;;;;;;44.60;26.30;;;;;;;;;;4995378;28;20088;-77
2023/09/10 02:10:54;;;;;;;44.47;28.55;;;;;;;;;;5077290;28;20584;-77
2023/09/10 02:13:20;;;;;;;43.72;27.77;;;;;;;;;;4995389;28;20056;-79
2023/09/10 02:15:45;;;;;;;42.70;26.88;;;;;;;;;;4996051;28;20045;-79
2023/09/10 02:18:10;;;;;;;50.58;30.02;;;;;;;;;;5079234;28;20022;-79
2023/09/10 02:20:36;;;;;;;40.10;28.25;;;;;;;;;;4992979;28;20022;-79
2023/09/10 02:23:02;;;;;;;46.38;28.98;;;;;;;;;;4987428;28;20050;-79
2023/09/10 02:25:28;;;;;;;43.00;27.02;;;;;;;;;;4987626;28;20043;-79
2023/09/10 02:27:53;;;;;;;44.67;27.65;;;;;;;;;;5051050;28;20050;-79
2023/09/10 02:30:18;;;;;;;46.60;26.60;;;;;;;;;;5052169;28;20030;-79
2023/09/10 02:32:44;;;;;;;45.28;29.40;;;;;;;;;;5067245;28;20025;-79
2023/09/10 02:35:09;;;;;;;49.67;30.20;;;;;;;;;;5048983;28;20129;-79
2023/09/10 02:37:34;;;;;;;51.47;31.52;;;;;;;;;;5049319;28;20042;-78
2023/09/10 02:39:59;;;;;;;50.75;31.23;;;;;;;;;;5051939;28;20569;-79
2023/09/10 02:42:25;;;;;;;48.20;30.73;;;;;;;;;;4989697;28;20600;-79
2023/09/10 02:44:50;;;;;;;40.63;26.95;;;;;;;;;;4986898;28;20022;-79
2023/09/10 02:47:15;;;;;;;39.22;26.83;;;;;;;;;;4988399;28;20067;-79
2023/09/10 02:49:41;;;;;;;37.95;25.27;;;;;;;;;;5067761;28;20039;-79
2023/09/10 02:54:36;;;;;;;45.45;29.17;;;;;;;;;;5060343;23;20082;-83
2023/09/10 02:57:02;;;;;;;45.42;26.83;;;;;;;;;;5048862;28;20032;-82
2023/09/10 02:59:27;;;;;;;40.95;26.85;;;;;;;;;;5049035;28;20434;-83
2023/09/10 03:01:53;;;;;;;45.45;27.20;;;;;;;;;;5047374;28;20028;-82
2023/09/10 03:04:19;;;;;;;38.88;26.15;;;;;;;;;;5045847;28;20602;-80
2023/09/10 03:06:49;;;;;;;40.85;26.58;;;;;;;;;;5043067;28;20495;-84
2023/09/10 03:09:15;;;;;;;43.05;27.67;;;;;;;;;;5034310;28;20022;-83
2023/09/10 03:11:42;;;;;;;38.03;25.73;;;;;;;;;;5050467;28;20017;-83
2023/09/10 03:14:08;;;;;;;42.75;26.83;;;;;;;;;;5048436;28;20125;-81
2023/09/10 03:16:35;;;;;;;35.10;24.55;;;;;;;;;;5037484;28;20037;-82
2023/09/10 03:19:01;;;;;;;41.15;25.92;;;;;;;;;;5044256;28;20063;-81
2023/09/10 03:21:27;;;;;;;155.07;72.00;;;;;;;;;;5041724;28;20438;-82
2023/09/10 03:23:53;;;;;;;62.95;34.83;;;;;;;;;;5040701;28;20032;-80
2023/09/10 03:26:18;;;;;;;37.83;24.08;;;;;;;;;;5043641;28;20033;-80
2023/09/10 03:28:43;;;;;;;33.00;22.70;;;;;;;;;;5044284;28;20041;-82
2023/09/10 03:31:09;;;;;;;41.70;25.35;;;;;;;;;;5048099;28;20059;-82
2023/09/10 03:33:35;;;;;;;101.38;49.88;;;;;;;;;;5040201;28;20496;-81
2023/09/10 03:36:00;;;;;;;76.78;39.05;;;;;;;;;;5038807;28;20510;-82
2023/09/10 03:38:25;;;;;;;86.72;42.05;;;;;;;;;;5049234;28;20970;-82
2023/09/10 03:40:51;;;;;;;52.67;29.58;;;;;;;;;;5047660;28;20036;-79
2023/09/10 03:43:16;;;;;;;39.55;24.92;;;;;;;;;;5034542;28;20383;-81
2023/09/10 03:45:42;;;;;;;52.92;28.42;;;;;;;;;;5037954;28;20456;-82
2023/09/10 03:48:07;;;;;;;47.95;27.15;;;;;;;;;;5040886;28;20049;-82
2023/09/10 03:50:32;;;;;;;42.33;24.70;;;;;;;;;;5046212;28;20049;-82
2023/09/10 03:52:58;;;;;;;29.10;19.38;;;;;;;;;;5047275;28;20037;-84
2023/09/10 03:55:23;;;;;;;29.88;17.42;;;;;;;;;;5061524;28;20053;-83
2023/09/10 03:57:48;;;;;;;38.30;23.27;;;;;;;;;;5063945;28;20033;-83
2023/09/10 04:00:14;;;;;;;60.85;32.25;;;;;;;;;;5062649;28;20032;-81
2023/09/10 04:02:39;;;;;;;37.17;23.90;;;;;;;;;;5051658;28;20083;-82
2023/09/10 04:05:05;;;;;;;36.20;22.38;;;;;;;;;;5066795;28;20033;-82
2023/09/10 04:07:31;;;;;;;42.35;26.17;;;;;;;;;;5066803;28;20037;-80
2023/09/10 04:09:57;;;;;;;52.45;28.95;;;;;;;;;;5056897;28;20503;-82
2023/09/10 04:12:22;;;;;;;52.38;31.63;;;;;;;;;;5057747;28;20028;-83
2023/09/10 04:14:47;;;;;;;56.83;33.25;;;;;;;;;;5058343;28;20490;-82
2023/09/10 04:17:16;;;;;;;54.67;33.38;;;;;;;;;;5059018;28;20055;-82
2023/09/10 04:19:42;;;;;;;66.32;35.47;;;;;;;;;;5063143;28;20040;-81
2023/09/10 04:22:07;;;;;;;51.03;33.03;;;;;;;;;;5041042;28;20040;-83
2023/09/10 04:24:33;;;;;;;57.65;34.83;;;;;;;;;;5066760;28;20483;-82
2023/09/10 04:26:58;;;;;;;54.78;31.20;;;;;;;;;;5073406;28;20025;-83
2023/09/10 04:29:24;;;;;;;43.42;29.25;;;;;;;;;;5069345;28;20391;-84
2023/09/10 04:31:50;;;;;;;42.78;27.90;;;;;;;;;;5063504;28;20037;-83
2023/09/10 04:34:15;;;;;;;38.10;25.67;;;;;;;;;;5064702;28;20059;-83
2023/09/10 04:36:41;;;;;;;43.50;26.52;;;;;;;;;;5043101;28;20529;-81
2023/09/10 04:39:09;;;;;;;40.78;25.75;;;;;;;;;;5053926;28;20020;-83
2023/09/10 04:41:36;;;;;;;39.97;27.45;;;;;;;;;;5067955;28;20410;-82
2023/09/10 04:44:21;;;;;;;36.78;27.35;;;;;;;;;;5069930;28;20032;-82
2023/09/10 04:46:47;;;;;;;42.92;26.63;;;;;;;;;;5046114;28;20490;-82
2023/09/10 04:49:12;;;;;;;42.17;27.20;;;;;;;;;;5069963;28;20036;-82
2023/09/10 04:51:37;;;;;;;46.42;29.10;;;;;;;;;;5048626;28;20091;-82
2023/09/10 04:54:03;;;;;;;44.38;28.33;;;;;;;;;;5051334;28;20032;-82
2023/09/10 04:56:28;;;;;;;49.85;31.25;;;;;;;;;;5070686;28;20446;-83
2023/09/10 04:58:53;;;;;;;44.15;26.15;;;;;;;;;;5065959;28;20040;-83
2023/09/10 05:01:19;;;;;;;42.67;26.75;;;;;;;;;;5059180;28;20040;-82
2023/09/10 05:03:44;;;;;;;61.45;36.90;;;;;;;;;;5068398;28;20093;-83
2023/09/10 05:06:10;;;;;;;74.28;38.88;;;;;;;;;;5059211;28;20463;-82
2023/09/10 05:08:35;;;;;;;32.10;22.40;;;;;;;;;;5041508;28;20351;-82
2023/09/10 05:11:01;;;;;;;28.85;22.90;;;;;;;;;;5043279;28;20108;-82
2023/09/10 05:13:30;;;;;;;43.15;28.05;;;;;;;;;;5038941;28;20044;-83
2023/09/10 05:15:57;;;;;;;35.72;23.90;;;;;;;;;;5044701;28;20487;-83
2023/09/10 05:18:25;;;;;;;39.60;24.42;;;;;;;;;;5066433;28;20037;-83
2023/09/10 05:20:52;;;;;;;31.73;23.90;;;;;;;;;;5062140;28;20051;-82
2023/09/10 05:23:22;;;;;;;50.83;30.92;;;;;;;;;;5068697;28;20152;-80
2023/09/10 05:25:47;;;;;;;40.72;23.77;;;;;;;;;;5072876;28;20032;-84
2023/09/10 05:28:13;;;;;;;31.38;23.27;;;;;;;;;;5066722;28;20029;-83
2023/09/10 05:30:38;;;;;;;29.02;22.35;;;;;;;;;;5064228;28;20047;-82
2023/09/10 05:33:04;;;;;;;27.02;21.38;;;;;;;;;;5065536;28;20043;-80
2023/09/10 05:35:29;;;;;;;26.05;20.98;;;;;;;;;;5070624;28;20024;-81
2023/09/10 05:37:54;;;;;;;27.17;18.77;;;;;;;;;;5066572;28;20055;-83
2023/09/10 05:40:19;;;;;;;22.42;17.35;;;;;;;;;;5054672;28;20029;-82
2023/09/10 05:42:45;;;;;;;22.02;17.25;;;;;;;;;;5059443;28;20052;-82
2023/09/10 05:45:10;;;;;;;19.75;16.75;;;;;;;;;;5062681;28;20029;-83
2023/09/10 05:47:36;;;;;;;21.65;15.18;;;;;;;;;;5063412;28;20052;-81
2023/09/10 05:50:01;;;;;;;18.75;14.95;;;;;;;;;;5062178;28;20120;-81
2023/09/10 05:52:27;;;;;;;20.30;13.85;;;;;;;;;;5069167;28;20036;-82
2023/09/10 05:54:53;;;;;;;20.02;14.23;;;;;;;;;;5034612;28;20044;-83
2023/09/10 05:57:18;;;;;;;26.55;16.42;;;;;;;;;;5059247;28;20028;-80
2023/09/10 05:59:43;;;;;;;25.02;15.50;;;;;;;;;;5062230;28;20024;-81
2023/09/10 06:02:09;;;;;;;16.17;12.63;;;;;;;;;;5056643;28;20028;-82
2023/09/10 06:04:34;;;;;;;14.95;11.88;;;;;;;;;;5059702;28;20514;-81
2023/09/10 06:07:02;;;;;;;16.38;13.15;;;;;;;;;;5060981;28;20040;-81
2023/09/10 06:09:28;;;;;;;13.38;11.35;;;;;;;;;;5066424;28;20049;-80
2023/09/10 06:11:53;;;;;;;11.27;10.10;;;;;;;;;;5063040;28;20033;-84
2023/09/10 06:14:18;;;;;;;13.32;9.50;;;;;;;;;;5045900;28;20080;-81
2023/09/10 06:16:43;;;;;;;12.15;10.25;;;;;;;;;;5064846;28;20082;-83
2023/09/10 06:19:09;;;;;;;10.27;9.27;;;;;;;;;;5062700;28;20040;-83
2023/09/10 06:21:35;;;;;;;10.48;9.48;;;;;;;;;;5035252;28;20040;-80
2023/09/10 06:24:00;;;;;;;13.13;10.07;;;;;;;;;;5067943;28;20029;-77
2023/09/10 06:26:25;;;;;;;10.43;9.32;;;;;;;;;;5066954;28;20036;-79
2023/09/10 06:28:51;;;;;;;10.35;9.25;;;;;;;;;;5062890;28;20025;-79
2023/09/10 06:31:16;;;;;;;11.95;9.20;;;;;;;;;;5038967;28;20063;-80
2023/09/10 06:33:41;;;;;;;10.23;9.23;;;;;;;;;;5081596;28;20052;-79
2023/09/10 06:36:06;;;;;;;9.70;8.70;;;;;;;;;;5078060;28;20567;-79
2023/09/10 06:38:32;;;;;;;10.70;8.93;;;;;;;;;;5063046;28;20036;-78
2023/09/10 06:40:57;;;;;;;9.88;8.65;;;;;;;;;;5060811;28;20029;-79
2023/09/10 06:43:22;;;;;;;13.30;9.10;;;;;;;;;;5038788;28;20060;-78
2023/09/10 06:45:50;;;;;;;13.73;8.20;;;;;;;;;;5059362;28;20402;-77
2023/09/10 06:48:15;;;;;;;9.18;8.27;;;;;;;;;;5064005;28;20020;-78
2023/09/10 06:50:41;;;;;;;8.60;7.65;;;;;;;;;;5038300;28;20441;-78
2023/09/10 06:53:06;;;;;;;11.25;7.78;;;;;;;;;;5058525;28;20029;-78
2023/09/10 06:55:31;;;;;;;9.70;7.47;;;;;;;;;;5072483;28;20040;-79
2023/09/10 06:57:56;;;;;;;8.65;7.78;;;;;;;;;;5073690;28;20032;-79
2023/09/10 07:00:22;;;;;;;11.45;7.60;;;;;;;;;;5075139;28;20037;-80
2023/09/10 07:02:47;;;;;;;9.32;7.70;;;;;;;;;;5054942;28;20032;-80
2023/09/10 07:05:13;;;;;;;8.48;7.30;;;;;;;;;;5060452;28;20029;-82
2023/09/10 07:07:38;;;;;;;10.15;7.72;;;;;;;;;;5060358;28;20045;-81
2023/09/10 07:10:04;;;;;;;9.57;7.53;;;;;;;;;;5057084;28;20040;-82
2023/09/10 07:12:30;;;;;;;9.23;7.22;;;;;;;;;;5037460;28;20044;-80
2023/09/10 07:14:55;;;;;;;14.50;7.18;;;;;;;;;;5053582;28;20021;-82
2023/09/10 07:17:20;;;;;;;11.98;7.78;;;;;;;;;;5059460;28;20028;-80
2023/09/10 07:19:46;;;;;;;8.77;6.68;;;;;;;;;;5060241;28;20045;-81
2023/09/10 07:22:11;;;;;;;9.55;7.28;;;;;;;;;;5034188;28;20087;-82
2023/09/10 07:24:36;;;;;;;9.85;7.00;;;;;;;;;;5056626;28;20043;-81
2023/09/10 07:27:02;;;;;;;10.32;6.90;;;;;;;;;;5054399;28;20104;-80
2023/09/10 07:29:28;;;;;;;9.73;6.97;;;;;;;;;;5055559;28;20435;-79
2023/09/10 07:31:54;;;;;;;7.47;6.75;;;;;;;;;;5033093;28;20049;-82
2023/09/10 07:34:20;;;;;;;50.63;7.57;;;;;;;;;;5057184;28;20028;-82
2023/09/10 07:36:46;;;;;;;8.13;7.22;;;;;;;;;;5040734;28;20040;-81
2023/09/10 07:39:11;;;;;;;9.40;7.18;;;;;;;;;;5060087;28;20600;-80
2023/09/10 07:41:37;;;;;;;8.90;6.97;;;;;;;;;;5060385;28;20025;-79
2023/09/10 07:44:02;;;;;;;10.93;6.60;;;;;;;;;;5053946;28;20037;-82
2023/09/10 07:46:28;;;;;;;7.57;6.80;;;;;;;;;;5050270;28;20051;-81
2023/09/10 07:48:54;;;;;;;7.22;6.57;;;;;;;;;;5030313;28;20029;-80
2023/09/10 07:51:19;;;;;;;8.55;7.13;;;;;;;;;;5032610;28;20029;-81
2023/09/10 07:53:44;;;;;;;8.88;7.07;;;;;;;;;;5055043;28;20353;-79
2023/09/10 07:56:10;;;;;;;7.35;6.65;;;;;;;;;;5057532;28;20048;-80
2023/09/10 07:58:35;;;;;;;8.48;7.10;;;;;;;;;;5054072;28;20047;-80
2023/09/10 08:01:00;;;;;;;8.38;7.40;;;;;;;;;;5053210;28;20048;-81
2023/09/10 08:03:26;;;;;;;8.02;7.10;;;;;;;;;;5064173;28;20536;-81
2023/09/10 08:05:51;;;;;;;7.43;6.75;;;;;;;;;;5052967;28;20111;-82
2023/09/10 08:08:17;;;;;;;8.82;7.45;;;;;;;;;;5063578;28;20064;-81
2023/09/10 08:10:44;;;;;;;8.10;7.30;;;;;;;;;;5053229;28;20042;-83
2023/09/10 08:13:13;;;;;;;10.52;7.60;;;;;;;;;;5063726;28;20044;-82
2023/09/10 08:15:40;;;;;;;9.05;7.30;;;;;;;;;;5054726;28;20044;-81
2023/09/10 08:18:10;;;;;;;9.02;7.40;;;;;;;;;;5064117;28;20124;-81
2023/09/10 08:20:36;;;;;;;13.57;7.70;;;;;;;;;;5065642;28;20123;-81
2023/09/10 08:23:03;;;;;;;12.68;7.43;;;;;;;;;;5058687;28;20055;-81
2023/09/10 08:25:28;;;;;;;8.27;6.65;;;;;;;;;;5054820;28;20123;-79
2023/09/10 08:27:53;;;;;;;7.80;7.03;;;;;;;;;;5054224;28;20109;-79
2023/09/10 08:30:18;;;;;;;9.90;6.82;;;;;;;;;;5060830;28;20059;-80
2023/09/10 08:32:47;;;;;;;8.18;7.38;;;;;;;;;;5062052;28;20024;-81
2023/09/10 08:35:12;;;;;;;9.18;7.32;;;;;;;;;;5052365;28;20029;-81
2023/09/10 08:37:38;;;;;;;7.43;6.72;;;;;;;;;;5059395;28;20032;-81
2023/09/10 08:40:04;;;;;;;7.30;6.60;;;;;;;;;;5055752;28;20138;-79
2023/09/10 08:42:44;;;;;;;8.05;6.60;;;;;;;;;;5061491;28;20503;-80
2023/09/10 08:45:10;;;;;;;7.50;6.78;;;;;;;;;;5058852;28;20424;-77
2023/09/10 08:47:43;;;;;;;7.32;6.63;;;;;;;;;;5060922;28;20525;-80
2023/09/10 08:50:13;;;;;;;7.22;6.53;;;;;;;;;;5068345;28;20062;-80
2023/09/10 08:52:41;;;;;;;7.43;6.68;;;;;;;;;;5073229;23;20138;-78
2023/09/10 08:55:08;;;;;;;7.45;6.75;;;;;;;;;;5003022;28;20043;-78
2023/09/10 08:57:36;;;;;;;8.52;7.32;;;;;;;;;;4934151;28;20047;-78
2023/09/10 09:00:05;;;;;;;10.85;6.68;;;;;;;;;;4950241;28;20031;-78
2023/09/10 09:02:32;;;;;;;12.93;6.65;;;;;;;;;;4965133;28;20043;-78
2023/09/10 09:04:57;;;;;;;9.80;6.60;;;;;;;;;;4945697;28;20039;-79
2023/09/10 09:07:26;;;;;;;7.28;6.50;;;;;;;;;;4949236;28;20469;-78
2023/09/10 09:09:56;;;;;;;7.55;6.70;;;;;;;;;;4956175;28;20051;-78
2023/09/10 09:12:23;;;;;;;8.27;6.90;;;;;;;;;;4953140;28;20451;-78
2023/09/10 09:14:50;;;;;;;10.85;7.22;;;;;;;;;;4957930;28;20031;-78
2023/09/10 09:17:15;;;;;;;7.60;6.90;;;;;;;;;;4935897;28;20042;-78
2023/09/10 09:19:46;;;;;;;8.95;6.78;;;;;;;;;;4934834;28;20049;-78
2023/09/10 09:22:15;;;;;;;7.93;6.63;;;;;;;;;;4937537;28;20781;-78
2023/09/10 09:24:43;;;;;;;6.70;6.10;;;;;;;;;;4949828;28;20102;-79
2023/09/10 09:27:10;;;;;;;6.07;5.57;;;;;;;;;;4956383;28;20057;-78
2023/09/10 09:29:36;;;;;;;8.00;6.22;;;;;;;;;;4955497;28;20531;-78
2023/09/10 09:32:02;;;;;;;7.60;6.28;;;;;;;;;;4952265;28;20070;-78
2023/09/10 09:34:27;;;;;;;6.70;6.10;;;;;;;;;;4934937;28;20039;-79
2023/09/10 09:36:53;;;;;;;6.88;6.18;;;;;;;;;;4957193;28;20049;-78
2023/09/10 09:39:20;;;;;;;9.32;6.45;;;;;;;;;;4939884;28;20026;-78
2023/09/10 09:41:50;;;;;;;7.25;6.18;;;;;;;;;;4951839;28;20114;-78
2023/09/10 09:44:15;;;;;;;11.15;6.32;;;;;;;;;;4953944;28;20102;-78
2023/09/10 09:46:42;;;;;;;6.47;5.65;;;;;;;;;;4955194;28;20043;-78
2023/09/10 09:49:07;;;;;;;9.63;6.15;;;;;;;;;;4942243;28;20035;-78
2023/09/10 09:51:33;;;;;;;7.22;6.15;;;;;;;;;;4950143;28;20038;-78
2023/09/10 09:54:00;;;;;;;7.82;5.70;;;;;;;;;;4944318;28;20058;-78
2023/09/10 09:56:25;;;;;;;8.43;5.95;;;;;;;;;;4950280;28;20047;-79
2023/09/10 09:58:50;;;;;;;6.82;5.43;;;;;;;;;;4952489;28;20046;-79
2023/09/10 10:01:15;;;;;;;7.45;5.53;;;;;;;;;;4931967;28;20429;-78
2023/09/10 10:03:41;;;;;;;7.15;5.22;;;;;;;;;;4945320;28;20203;-78
2023/09/10 10:06:07;;;;;;;9.15;5.50;;;;;;;;;;4955029;28;20051;-78
2023/09/10 10:08:32;;;;;;;5.80;5.03;;;;;;;;;;4936122;28;20146;-78
2023/09/10 10:10:58;;;;;;;7.47;5.30;;;;;;;;;;4951908;28;20570;-78
2023/09/10 10:13:25;;;;;;;7.25;5.25;;;;;;;;;;4947756;28;20031;-78
2023/09/10 10:15:52;;;;;;;4.47;4.07;;;;;;;;;;4954153;28;20042;-78
2023/09/10 10:18:19;;;;;;;9.95;5.32;;;;;;;;;;4952462;28;20099;-78
2023/09/10 10:20:49;;;;;;;8.70;5.65;;;;;;;;;;4958115;28;20058;-78
2023/09/10 10:23:16;;;;;;;7.70;5.63;;;;;;;;;;4947984;28;20074;-78
2023/09/10 10:25:43;;;;;;;6.13;5.53;;;;;;;;;;4957710;28;20181;-78
2023/09/10 10:28:09;;;;;;;6.40;5.70;;;;;;;;;;4952984;28;20043;-78
2023/09/10 10:31:04;;;;;;;5.20;4.72;;;;;;;;;;4953647;28;20154;-78
2023/09/10 10:33:31;;;;;;;5.05;4.65;;;;;;;;;;4954752;28;20868;-77
2023/09/10 10:36:10;;;;;;;5.80;4.50;;;;;;;;;;4966363;28;20168;-79
2023/09/10 10:38:40;;;;;;;8.88;5.43;;;;;;;;;;4960833;28;20039;-79
2023/09/10 10:41:16;;;;;;;5.47;4.97;;;;;;;;;;4940444;28;20456;-78
2023/09/10 10:43:50;;;;;;;5.93;5.43;;;;;;;;;;4956744;28;20048;-79
2023/09/10 10:46:18;;;;;;;8.52;5.72;;;;;;;;;;4941385;28;20090;-79
2023/09/10 10:48:44;;;;;;;6.53;5.63;;;;;;;;;;4965970;28;20069;-79
2023/09/10 10:51:14;;;;;;;6.82;5.53;;;;;;;;;;4956513;28;20553;-79
2023/09/10 10:53:40;;;;;;;11.98;5.55;;;;;;;;;;4955382;28;20093;-79
2023/09/10 10:56:06;;;;;;;6.85;4.82;;;;;;;;;;4951570;28;20035;-79
2023/09/10 10:58:34;;;;;;;6.38;4.90;;;;;;;;;;4945237;28;20034;-79
2023/09/10 11:01:01;;;;;;;6.00;4.88;;;;;;;;;;4956587;28;20051;-79
2023/09/10 11:03:26;;;;;;;9.18;5.72;;;;;;;;;;4935409;28;20522;-79
2023/09/10 11:05:52;;;;;;;5.25;4.75;;;;;;;;;;4943767;28;20031;-79
2023/09/10 11:08:41;;;;;;;10.38;5.15;;;;;;;;;;4936017;28;20040;-78
2023/09/10 11:11:08;;;;;;;4.90;4.40;;;;;;;;;;4951681;28;20421;-78
2023/09/10 11:14:00;;;;;;;5.28;4.55;;;;;;;;;;4954370;28;20438;-79
2023/09/10 11:16:31;;;;;;;6.78;4.40;;;;;;;;;;4958730;28;20102;-78
2023/09/10 11:18:56;;;;;;;5.35;4.28;;;;;;;;;;4941356;28;20045;-79
2023/09/10 11:21:21;;;;;;;4.90;4.50;;;;;;;;;;4955647;28;20034;-79
2023/09/10 11:23:46;;;;;;;6.25;4.13;;;;;;;;;;4947758;28;20027;-79
2023/09/10 11:26:15;;;;;;;4.80;4.00;;;;;;;;;;4938144;28;20508;-79
2023/09/10 11:28:54;;;;;;;9.90;4.22;;;;;;;;;;4948714;28;20276;-79
2023/09/10 11:31:38;;;;;;;6.25;4.63;;;;;;;;;;4961698;28;20397;-79
2023/09/10 11:34:15;;;;;;;4.93;4.15;;;;;;;;;;4954219;28;20035;-79
2023/09/10 11:37:06;;;;;;;5.82;4.63;;;;;;;;;;4941658;28;20112;-79
2023/09/10 11:39:33;;;;;;;5.50;4.38;;;;;;;;;;4949115;28;20031;-79
2023/09/10 11:42:04;;;;;;;5.43;4.60;;;;;;;;;;4936418;28;20056;-78
2023/09/10 11:44:29;;;;;;;4.75;4.30;;;;;;;;;;4951772;28;20059;-78
2023/09/10 11:46:54;;;;;;;6.68;4.45;;;;;;;;;;4932884;28;20084;-79
2023/09/10 11:49:21;;;;;;;6.40;4.50;;;;;;;;;;4938398;28;20043;-80
2023/09/10 11:51:48;;;;;;;7.38;4.38;;;;;;;;;;4939424;28;20047;-79
2023/09/10 11:54:18;;;;;;;5.10;4.60;;;;;;;;;;4953375;28;20027;-79
2023/09/10 11:56:51;;;;;;;6.75;4.20;;;;;;;;;;4933017;28;20044;-79
2023/09/10 11:59:19;;;;;;;7.00;4.85;;;;;;;;;;4936607;28;20114;-78
2023/09/10 12:01:44;;;;;;;4.75;4.35;;;;;;;;;;4938970;28;20042;-78
2023/09/10 12:04:10;;;;;;;7.85;4.70;;;;;;;;;;4949952;28;20599;-79
2023/09/10 12:06:35;;;;;;;4.88;4.18;;;;;;;;;;4951561;28;20035;-80
2023/09/10 12:09:01;;;;;;;7.35;4.43;;;;;;;;;;4958751;28;20038;-79
2023/09/10 12:11:29;;;;;;;5.82;5.03;;;;;;;;;;4955201;28;20093;-79
2023/09/10 12:13:55;;;;;;;9.68;5.47;;;;;;;;;;4944282;28;20046;-80
2023/09/10 12:16:20;;;;;;;6.82;4.75;;;;;;;;;;4954786;28;20066;-79
2023/09/10 12:18:46;;;;;;;6.90;4.80;;;;;;;;;;4961619;28;20315;-80
2023/09/10 12:21:15;;;;;;;7.38;4.88;;;;;;;;;;4956599;28;20089;-79
2023/09/10 12:23:41;;;;;;;4.78;4.25;;;;;;;;;;4955400;28;20042;-80
2023/09/10 12:26:07;;;;;;;8.88;5.45;;;;;;;;;;4944351;28;20035;-77
2023/09/10 12:28:33;;;;;;;9.40;4.72;;;;;;;;;;4949875;28;20035;-78
2023/09/10 12:30:59;;;;;;;7.38;4.60;;;;;;;;;;4949394;28;20042;-78
2023/09/10 12:33:24;;;;;;;7.60;4.30;;;;;;;;;;4943068;28;20062;-80
2023/09/10 12:35:50;;;;;;;5.68;5.07;;;;;;;;;;4935807;28;20157;-80
2023/09/10 12:38:17;;;;;;;5.75;5.00;;;;;;;;;;4950180;28;20043;-80
2023/09/10 12:40:44;;;;;;;7.65;4.93;;;;;;;;;;4936298;28;20085;-78
2023/09/10 12:43:09;;;;;;;8.00;5.40;;;;;;;;;;4934334;28;20050;-79
2023/09/10 12:45:35;;;;;;;8.70;5.38;;;;;;;;;;4951423;28;20051;-78
2023/09/10 12:48:01;;;;;;;6.90;4.82;;;;;;;;;;4954429;28;20030;-79
2023/09/10 12:50:27;;;;;;;5.72;5.22;;;;;;;;;;4940853;28;20497;-79
2023/09/10 12:52:54;;;;;;;7.07;5.03;;;;;;;;;;4936750;28;20040;-78
2023/09/10 12:55:20;;;;;;;6.32;5.00;;;;;;;;;;4951042;28;20035;-79
2023/09/10 12:57:55;;;;;;;7.13;4.93;;;;;;;;;;4939643;28;20038;-79
2023/09/10 13:00:24;;;;;;;6.20;4.90;;;;;;;;;;4947928;28;20039;-79
2023/09/10 13:02:49;;;;;;;8.35;4.50;;;;;;;;;;4936122;28;20606;-78
2023/09/10 13:05:15;;;;;;;5.45;4.45;;;;;;;;;;4949851;28;20117;-78
2023/09/10 13:07:41;;;;;;;5.50;4.70;;;;;;;;;;4930721;28;20035;-78
2023/09/10 13:10:09;;;;;;;4.90;4.50;;;;;;;;;;4961631;28;20405;-78
2023/09/10 13:12:34;;;;;;;4.88;4.47;;;;;;;;;;4946790;28;20043;-78
2023/09/10 13:14:59;;;;;;;9.65;5.18;;;;;;;;;;4948561;28;20316;-78
2023/09/10 13:17:25;;;;;;;7.20;5.10;;;;;;;;;;4957726;28;20060;-77
2023/09/10 13:19:50;;;;;;;8.05;5.13;;;;;;;;;;4952591;28;20031;-78
2023/09/10 13:22:15;;;;;;;4.85;4.45;;;;;;;;;;4953755;28;20527;-78
2023/09/10 13:24:41;;;;;;;5.60;4.80;;;;;;;;;;4953917;28;20367;-77
2023/09/10 13:27:06;;;;;;;5.30;4.68;;;;;;;;;;4956811;28;20487;-77
2023/09/10 13:29:31;;;;;;;7.50;5.10;;;;;;;;;;4957803;28;20042;-77
2023/09/10 13:31:57;;;;;;;5.35;4.70;;;;;;;;;;4955612;28;20074;-78
2023/09/10 13:34:22;;;;;;;5.50;4.50;;;;;;;;;;4960819;28;20034;-78
2023/09/10 13:36:48;;;;;;;5.45;4.95;;;;;;;;;;4938397;28;20046;-77
2023/09/10 13:39:13;;;;;;;6.07;5.15;;;;;;;;;;4954551;28;20026;-78
2023/09/10 13:41:39;;;;;;;9.82;5.13;;;;;;;;;;4960921;28;20032;-78
2023/09/10 13:44:05;;;;;;;7.65;5.20;;;;;;;;;;4958640;28;20043;-78
2023/09/10 13:46:30;;;;;;;5.18;4.60;;;;;;;;;;4965009;28;20031;-78
2023/09/10 13:48:56;;;;;;;5.38;4.85;;;;;;;;;;4958337;28;20039;-78
2023/09/10 13:51:21;;;;;;;4.60;4.30;;;;;;;;;;4954486;28;20513;-77
2023/09/10 13:53:48;;;;;;;5.78;4.53;;;;;;;;;;4958253;28;20059;-77
2023/09/10 13:56:14;;;;;;;6.03;4.88;;;;;;;;;;4953474;28;20039;-77
2023/09/10 13:58:39;;;;;;;5.35;4.88;;;;;;;;;;4954630;28;20043;-77
2023/09/10 14:01:07;;;;;;;7.40;4.75;;;;;;;;;;4956998;28;20042;-78
2023/09/10 14:03:36;;;;;;;5.90;5.05;;;;;;;;;;4954931;28;20050;-78
2023/09/10 14:06:07;;;;;;;7.15;4.63;;;;;;;;;;4959710;28;20049;-77
2023/09/10 14:08:33;;;;;;;9.02;4.68;;;;;;;;;;4933187;28;20823;-78
2023/09/10 14:10:58;;;;;;;6.20;4.45;;;;;;;;;;4958729;28;20104;-78
2023/09/10 14:13:23;;;;;;;5.65;5.13;;;;;;;;;;4957046;28;20062;-78
2023/09/10 14:15:49;;;;;;;9.52;5.07;;;;;;;;;;4935979;28;20038;-78
2023/09/10 14:18:14;;;;;;;8.00;4.80;;;;;;;;;;4938796;28;20060;-77
2023/09/10 14:20:40;;;;;;;4.75;4.35;;;;;;;;;;4955279;28;20020;-77
2023/09/10 14:23:05;;;;;;;5.50;5.00;;;;;;;;;;4948097;28;20126;-78
2023/09/10 14:25:32;;;;;;;7.50;4.53;;;;;;;;;;4954909;28;20042;-78
2023/09/10 14:27:58;;;;;;;32.92;5.53;;;;;;;;;;4959427;28;20162;-78
2023/09/10 14:30:23;;;;;;;4.80;4.40;;;;;;;;;;4958192;28;20061;-78
2023/09/10 14:32:49;;;;;;;7.05;4.68;;;;;;;;;;4940005;28;20035;-78